createdAt,value
2023-03-06T00:01:18.778Z,12.27
2023-03-06T00:03:40.311Z,13.43
2023-03-06T00:06:02.114Z,14.20
2023-03-06T00:08:24.279Z,14.40
2023-03-06T00:10:45.992Z,13.93
2023-03-06T00:13:10.710Z,13.80
2023-03-06T00:15:32.809Z,13.57
2023-03-06T00:17:55.275Z,14.17
2023-03-06T00:20:17.203Z,13.40
2023-03-06T00:22:39.032Z,13.63
2023-03-06T00:25:00.487Z,15.30
2023-03-06T00:27:22.160Z,14.00
2023-03-06T00:29:44.780Z,14.33
2023-03-06T00:32:06.763Z,13.70
2023-03-06T00:34:28.280Z,14.73
2023-03-06T00:36:49.716Z,14.03
2023-03-06T00:39:11.237Z,13.47
2023-03-06T00:41:32.724Z,14.93
2023-03-06T00:43:54.169Z,14.70
2023-03-06T00:46:15.591Z,14.10
2023-03-06T00:48:37.081Z,13.90
2023-03-06T00:50:58.683Z,14.17
2023-03-06T00:53:20.148Z,14.37
2023-03-06T00:55:44.844Z,13.90
2023-03-06T00:58:06.304Z,13.77
2023-03-06T01:00:27.726Z,13.90
2023-03-06T01:02:49.155Z,15.13
2023-03-06T01:05:14.066Z,14.73
2023-03-06T01:07:36.984Z,14.23
2023-03-06T01:09:58.395Z,14.60
2023-03-06T01:12:22.781Z,14.57
2023-03-06T01:14:45.019Z,14.13
2023-03-06T01:17:06.496Z,15.57
2023-03-06T01:19:27.974Z,14.60
2023-03-06T01:21:49.418Z,14.40
2023-03-06T01:24:10.897Z,15.07
2023-03-06T01:26:33.479Z,14.80
2023-03-06T01:28:57.396Z,14.00
2023-03-06T01:31:18.941Z,13.70
2023-03-06T01:33:40.496Z,14.60
2023-03-06T01:36:07.776Z,14.33
2023-03-06T01:38:29.725Z,14.70
2023-03-06T01:40:51.580Z,15.30
2023-03-06T01:43:28.544Z,14.73
2023-03-06T01:45:50.025Z,14.80
2023-03-06T01:48:11.553Z,14.57
2023-03-06T01:50:33.068Z,14.60
2023-03-06T01:52:59.880Z,14.13
2023-03-06T01:55:25.909Z,14.43
2023-03-06T01:57:55.168Z,13.63
2023-03-06T02:00:24.214Z,13.87
2023-03-06T02:02:53.230Z,12.87
2023-03-06T02:05:14.720Z,13.87
2023-03-06T02:07:37.822Z,14.23
2023-03-06T02:09:59.423Z,15.00
2023-03-06T02:12:22.212Z,14.53
2023-03-06T02:14:43.928Z,14.50
2023-03-06T02:17:07.269Z,14.67
2023-03-06T02:19:43.139Z,15.30
2023-03-06T02:22:04.640Z,14.90
2023-03-06T02:24:45.681Z,15.10
2023-03-06T02:27:09.615Z,13.10
2023-03-06T02:29:31.724Z,13.27
2023-03-06T02:31:53.245Z,13.83
2023-03-06T02:34:14.637Z,13.53
2023-03-06T02:36:40.794Z,14.73
2023-03-06T02:39:02.525Z,14.50
2023-03-06T02:41:24.413Z,13.53
2023-03-06T02:43:47.969Z,13.13
2023-03-06T02:46:09.712Z,13.80
2023-03-06T02:48:31.381Z,13.33
2023-03-06T02:50:52.808Z,13.37
2023-03-06T02:53:16.871Z,14.17
2023-03-06T02:55:38.413Z,13.37
2023-03-06T02:58:00.318Z,13.53
2023-03-06T03:00:22.181Z,13.67
2023-03-06T03:02:44.062Z,13.97
2023-03-06T03:05:06.047Z,13.80
2023-03-06T03:07:27.486Z,13.47
2023-03-06T03:09:48.979Z,13.87
2023-03-06T03:12:10.676Z,14.00
2023-03-06T03:14:32.260Z,13.93
2023-03-06T03:16:54.105Z,14.03
2023-03-06T03:19:15.569Z,12.63
2023-03-06T03:21:37.042Z,14.83
2023-03-06T03:23:58.504Z,13.07
2023-03-06T03:26:21.542Z,13.80
2023-03-06T03:28:43.238Z,15.53
2023-03-06T03:31:07.699Z,14.10
2023-03-06T03:33:29.642Z,14.33
2023-03-06T03:35:57.943Z,14.83
2023-03-06T03:38:19.677Z,15.00
2023-03-06T03:40:41.124Z,14.57
2023-03-06T03:43:02.806Z,14.47
2023-03-06T03:45:24.327Z,13.67
2023-03-06T03:47:45.789Z,15.00
2023-03-06T03:50:08.402Z,14.73
2023-03-06T03:52:29.836Z,14.67
2023-03-06T03:54:51.293Z,14.60
2023-03-06T03:57:12.739Z,15.13
2023-03-06T03:59:34.219Z,15.23
2023-03-06T04:01:56.086Z,15.37
2023-03-06T04:04:17.637Z,15.67
2023-03-06T04:06:39.132Z,16.73
2023-03-06T04:09:00.581Z,15.93
2023-03-06T04:11:22.212Z,16.60
2023-03-06T04:13:43.747Z,17.07
2023-03-06T04:16:05.778Z,17.53
2023-03-06T04:18:27.351Z,18.40
2023-03-06T04:20:49.549Z,17.73
2023-03-06T04:23:11.527Z,18.67
2023-03-06T04:25:33.296Z,18.07
2023-03-06T04:27:54.779Z,18.40
2023-03-06T04:30:16.337Z,19.67
2023-03-06T04:32:37.797Z,17.73
2023-03-06T04:34:59.315Z,16.87
2023-03-06T04:37:23.720Z,17.00
2023-03-06T04:39:45.183Z,16.90
2023-03-06T04:42:06.785Z,15.63
2023-03-06T04:44:28.246Z,16.07
2023-03-06T04:46:49.681Z,14.80
2023-03-06T04:49:11.241Z,15.83
2023-03-06T04:51:32.741Z,15.13
2023-03-06T04:53:54.206Z,16.23
2023-03-06T04:56:15.638Z,15.37
2023-03-06T04:58:37.483Z,15.03
2023-03-06T05:00:59.090Z,15.50
2023-03-06T05:03:20.543Z,13.80
2023-03-06T05:05:42.146Z,14.10
2023-03-06T05:08:03.725Z,14.17
2023-03-06T05:10:25.173Z,13.83
2023-03-06T05:12:46.751Z,13.83
2023-03-06T05:15:09.684Z,13.27
2023-03-06T05:17:31.312Z,13.93
2023-03-06T05:19:52.817Z,13.63
2023-03-06T05:22:14.254Z,13.43
2023-03-06T05:24:36.623Z,14.33
2023-03-06T05:26:58.074Z,14.37
2023-03-06T05:29:19.604Z,14.20
2023-03-06T05:31:41.099Z,14.20
2023-03-06T05:34:02.626Z,14.20
2023-03-06T05:36:24.412Z,14.70
2023-03-06T05:38:45.885Z,14.70
2023-03-06T05:41:11.689Z,14.27
2023-03-06T05:43:33.164Z,13.80
2023-03-06T05:46:05.466Z,14.77
2023-03-06T05:48:27.039Z,15.13
2023-03-06T05:50:55.244Z,13.70
2023-03-06T05:53:16.685Z,15.17
2023-03-06T05:55:38.189Z,15.07
2023-03-06T05:57:59.856Z,15.30
2023-03-06T06:00:22.393Z,15.20
2023-03-06T06:02:44.020Z,15.23
2023-03-06T06:05:05.884Z,15.63
2023-03-06T06:07:27.337Z,15.00
2023-03-06T06:09:52.700Z,16.17
2023-03-06T06:12:14.320Z,15.30
2023-03-06T06:14:35.809Z,15.67
2023-03-06T06:16:57.233Z,16.67
2023-03-06T06:19:20.134Z,15.37
2023-03-06T06:21:41.615Z,15.80
2023-03-06T06:24:03.224Z,14.93
2023-03-06T06:26:24.671Z,16.17
2023-03-06T06:28:46.126Z,16.50
2023-03-06T06:31:09.893Z,16.90
2023-03-06T06:33:31.393Z,16.10
2023-03-06T06:35:53.111Z,15.30
2023-03-06T06:38:14.644Z,14.53
2023-03-06T06:40:36.135Z,14.77
2023-03-06T06:42:57.573Z,14.57
2023-03-06T06:45:19.109Z,14.00
2023-03-06T06:47:41.579Z,13.60
2023-03-06T06:50:03.542Z,11.47
2023-03-06T06:52:25.511Z,13.33
2023-03-06T06:54:47.257Z,13.23
2023-03-06T06:57:10.453Z,12.97
2023-03-06T06:59:32.032Z,12.63
2023-03-06T07:01:53.569Z,13.90
2023-03-06T07:04:15.643Z,14.00
2023-03-06T07:06:37.139Z,12.70
2023-03-06T07:08:58.647Z,13.50
2023-03-06T07:11:20.692Z,13.13
2023-03-06T07:13:42.195Z,13.30
2023-03-06T07:16:04.093Z,13.47
2023-03-06T07:18:25.540Z,13.50
2023-03-06T07:20:47.000Z,13.17
2023-03-06T07:23:12.382Z,12.37
2023-03-06T07:25:33.861Z,12.53
2023-03-06T07:27:55.726Z,12.93
2023-03-06T07:30:17.354Z,13.13
2023-03-06T07:32:39.014Z,12.10
2023-03-06T07:35:18.782Z,11.87
2023-03-06T07:37:41.605Z,11.77
2023-03-06T07:40:04.557Z,11.73
2023-03-06T07:42:27.369Z,10.57
2023-03-06T07:44:48.883Z,12.17
2023-03-06T07:47:12.442Z,10.53
2023-03-06T07:49:34.545Z,11.33
2023-03-06T07:51:55.984Z,11.33
2023-03-06T07:54:17.440Z,10.97
2023-03-06T07:56:39.002Z,11.53
2023-03-06T07:59:01.156Z,11.80
2023-03-06T08:01:24.294Z,10.53
2023-03-06T08:03:47.125Z,10.57
2023-03-06T08:06:10.703Z,12.43
2023-03-06T08:08:34.420Z,11.70
2023-03-06T08:10:55.924Z,13.03
2023-03-06T08:13:17.360Z,11.53
2023-03-06T08:15:38.859Z,12.23
2023-03-06T08:18:00.358Z,11.87
2023-03-06T08:20:21.846Z,12.43
2023-03-06T08:22:43.359Z,12.10
2023-03-06T08:25:05.827Z,11.73
2023-03-06T08:27:27.282Z,10.57
2023-03-06T08:29:48.741Z,11.40
2023-03-06T08:32:11.960Z,10.53
2023-03-06T08:34:33.456Z,10.93
2023-03-06T08:36:54.975Z,10.63
2023-03-06T08:39:16.721Z,9.87
2023-03-06T08:41:38.228Z,11.03
2023-03-06T08:43:59.832Z,11.43
2023-03-06T08:46:23.969Z,10.03
2023-03-06T08:48:47.816Z,11.13
2023-03-06T08:51:09.975Z,11.43
2023-03-06T08:53:42.615Z,11.80
2023-03-06T08:56:05.152Z,11.10
2023-03-06T08:58:26.587Z,11.17
2023-03-06T09:00:48.998Z,10.63
2023-03-06T09:03:10.610Z,11.87
2023-03-06T09:05:32.750Z,12.37
2023-03-06T09:07:54.253Z,12.00
2023-03-06T09:10:18.511Z,11.03
2023-03-06T09:12:49.845Z,11.77
2023-03-06T09:15:13.574Z,11.03
2023-03-06T09:17:35.063Z,10.13
2023-03-06T09:19:56.594Z,10.63
2023-03-06T09:22:18.032Z,10.77
2023-03-06T09:24:39.464Z,11.80
2023-03-06T09:27:01.916Z,10.90
2023-03-06T09:29:23.342Z,9.17
2023-03-06T09:31:45.346Z,9.97
2023-03-06T09:34:06.901Z,10.17
2023-03-06T09:36:28.386Z,9.50
2023-03-06T09:38:50.483Z,9.50
2023-03-06T09:41:24.422Z,9.80
2023-03-06T09:43:50.040Z,9.17
2023-03-06T09:46:32.818Z,10.13
2023-03-06T09:49:10.322Z,9.93
2023-03-06T09:51:41.647Z,10.00
2023-03-06T09:54:14.055Z,8.90
2023-03-06T09:56:36.073Z,8.43
2023-03-06T09:59:05.007Z,9.10
2023-03-06T10:01:31.220Z,8.80
2023-03-06T10:04:02.709Z,6.83
2023-03-06T10:06:30.192Z,9.27
2023-03-06T10:08:59.415Z,7.87
2023-03-06T10:11:28.058Z,8.47
2023-03-06T10:14:14.024Z,7.57
2023-03-06T10:16:35.646Z,8.17
2023-03-06T10:19:02.486Z,8.07
2023-03-06T10:21:27.260Z,8.27
2023-03-06T10:23:55.030Z,7.73
2023-03-06T10:26:20.392Z,7.20
2023-03-06T10:28:52.623Z,8.77
2023-03-06T10:31:23.449Z,7.47
2023-03-06T10:33:50.676Z,6.93
2023-03-06T10:36:15.724Z,7.50
2023-03-06T10:38:38.249Z,7.17
2023-03-06T10:41:08.102Z,7.13
2023-03-06T10:43:29.677Z,7.07
2023-03-06T10:45:52.914Z,7.40
2023-03-06T10:48:19.738Z,7.70
2023-03-06T10:50:41.197Z,7.47
2023-03-06T10:53:05.887Z,7.57
2023-03-06T10:55:29.430Z,7.73
2023-03-06T10:57:50.857Z,7.10
2023-03-06T11:00:38.091Z,6.43
2023-03-06T11:03:07.032Z,7.30
2023-03-06T11:05:28.504Z,7.07
2023-03-06T11:08:01.716Z,7.07
2023-03-06T11:10:24.397Z,7.73
2023-03-06T11:13:01.498Z,6.90
2023-03-06T11:15:25.046Z,7.87
2023-03-06T11:17:54.227Z,7.30
2023-03-06T11:20:51.470Z,7.63
2023-03-06T11:23:19.584Z,7.87
2023-03-06T11:25:48.512Z,7.20
2023-03-06T11:28:24.140Z,8.03
2023-03-06T11:30:51.897Z,8.97
2023-03-06T11:33:39.484Z,8.07
2023-03-06T11:36:13.852Z,8.37
2023-03-06T11:38:51.984Z,8.70
2023-03-06T11:41:38.406Z,8.07
2023-03-06T11:44:39.790Z,8.20
2023-03-06T11:47:24.042Z,8.43
2023-03-06T11:49:51.275Z,7.83
2023-03-06T11:52:19.763Z,8.53
2023-03-06T11:54:41.316Z,8.30
2023-03-06T11:57:22.239Z,8.90
2023-03-06T11:59:59.190Z,8.70
2023-03-06T12:02:35.870Z,9.10
2023-03-06T12:05:31.694Z,8.23
2023-03-06T12:08:31.484Z,8.80
2023-03-06T12:10:59.993Z,8.40
2023-03-06T12:13:33.347Z,8.50
2023-03-06T12:16:13.148Z,10.13
2023-03-06T12:18:51.811Z,8.97
2023-03-06T12:21:27.741Z,10.27
2023-03-06T12:23:55.523Z,12.10
2023-03-06T12:26:44.891Z,10.80
2023-03-06T12:29:28.347Z,9.00
2023-03-06T12:31:55.146Z,10.20
2023-03-06T12:34:44.471Z,10.47
2023-03-06T12:37:20.842Z,11.00
2023-03-06T12:39:54.480Z,10.73
2023-03-06T12:42:36.702Z,10.83
2023-03-06T12:45:16.684Z,11.53
2023-03-06T12:47:43.140Z,11.50
2023-03-06T12:50:18.040Z,10.50
2023-03-06T12:52:39.664Z,10.30
2023-03-06T12:55:06.482Z,10.93
2023-03-06T12:57:29.775Z,10.83
2023-03-06T12:59:52.072Z,11.40
2023-03-06T13:02:43.622Z,10.47
2023-03-06T13:05:14.135Z,12.07
2023-03-06T13:08:04.748Z,10.90
2023-03-06T13:10:30.624Z,10.23
2023-03-06T13:13:01.092Z,9.83
2023-03-06T13:15:32.461Z,9.90
2023-03-06T13:17:53.947Z,10.47
2023-03-06T13:20:15.489Z,10.60
2023-03-06T13:22:36.993Z,10.07
2023-03-06T13:25:16.999Z,9.40
2023-03-06T13:27:53.472Z,10.87
2023-03-06T13:30:24.209Z,10.80
2023-03-06T13:32:45.700Z,11.00
2023-03-06T13:35:29.851Z,9.43
2023-03-06T13:37:52.865Z,9.40
2023-03-06T13:40:24.543Z,10.97
2023-03-06T13:42:45.968Z,10.07
2023-03-06T13:45:07.595Z,9.90
2023-03-06T13:47:55.737Z,10.80
2023-03-06T13:50:21.415Z,11.20
2023-03-06T13:53:13.458Z,12.13
2023-03-06T13:56:06.434Z,10.30
2023-03-06T13:58:51.646Z,12.40
2023-03-06T14:01:20.749Z,12.10
2023-03-06T14:04:10.257Z,12.30
2023-03-06T14:06:34.691Z,11.57
2023-03-06T14:08:56.265Z,12.60
2023-03-06T14:11:21.140Z,12.67
2023-03-06T14:13:50.170Z,12.47
2023-03-06T14:16:20.215Z,11.07
2023-03-06T14:18:46.467Z,12.53
2023-03-06T14:21:13.446Z,13.10
2023-03-06T14:23:42.387Z,13.80
2023-03-06T14:26:19.114Z,12.67
2023-03-06T14:28:42.542Z,13.67
2023-03-06T14:31:06.069Z,14.23
2023-03-06T14:33:32.198Z,12.97
2023-03-06T14:35:56.705Z,13.17
2023-03-06T14:38:18.281Z,14.23
2023-03-06T14:40:45.751Z,13.97
2023-03-06T14:43:20.462Z,14.20
2023-03-06T14:45:52.281Z,13.73
2023-03-06T14:48:15.216Z,14.00
2023-03-06T14:50:36.781Z,14.77
2023-03-06T14:52:58.162Z,13.60
2023-03-06T14:55:22.288Z,13.77
2023-03-06T14:57:43.937Z,14.13
2023-03-06T15:00:06.974Z,14.60
2023-03-06T15:02:32.941Z,13.17
2023-03-06T15:05:00.577Z,14.23
2023-03-06T15:07:26.807Z,13.53
2023-03-06T15:09:51.160Z,14.20
2023-03-06T15:12:18.542Z,13.30
2023-03-06T15:14:42.416Z,14.60
2023-03-06T15:17:19.204Z,15.00
2023-03-06T15:19:40.732Z,14.00
2023-03-06T15:22:02.502Z,14.20
2023-03-06T15:24:36.986Z,15.97
2023-03-06T15:27:05.374Z,16.03
2023-03-06T15:29:27.634Z,14.13
2023-03-06T15:31:49.587Z,14.43
2023-03-06T15:34:11.015Z,15.57
2023-03-06T15:36:35.137Z,16.20
2023-03-06T15:38:58.337Z,15.43
2023-03-06T15:41:30.368Z,16.50
2023-03-06T15:43:51.811Z,22.30
2023-03-06T15:46:13.500Z,14.47
2023-03-06T15:48:35.535Z,15.93
2023-03-06T15:50:57.375Z,15.00
2023-03-06T15:53:20.368Z,15.47
2023-03-06T15:55:42.108Z,15.43
2023-03-06T15:58:04.696Z,13.93
2023-03-06T16:00:29.420Z,14.43
2023-03-06T16:02:52.494Z,14.17
2023-03-06T16:05:18.258Z,14.67
2023-03-06T16:07:39.673Z,15.30
2023-03-06T16:10:01.124Z,15.63
2023-03-06T16:12:22.866Z,15.40
2023-03-06T16:14:47.290Z,15.10
2023-03-06T16:17:11.408Z,15.90
2023-03-06T16:19:32.839Z,13.47
2023-03-06T16:21:56.116Z,13.33
2023-03-06T16:24:18.154Z,14.40
2023-03-06T16:26:39.890Z,13.53
2023-03-06T16:29:01.517Z,13.60
2023-03-06T16:31:23.214Z,14.83
2023-03-06T16:33:44.713Z,14.00
2023-03-06T16:36:24.687Z,13.90
2023-03-06T16:38:46.625Z,14.47
2023-03-06T16:41:08.139Z,14.23
2023-03-06T16:43:29.590Z,15.87
2023-03-06T16:45:51.466Z,15.93
2023-03-06T16:48:19.651Z,15.03
2023-03-06T16:50:41.509Z,14.77
2023-03-06T16:53:04.127Z,15.23
2023-03-06T16:55:27.086Z,15.60
2023-03-06T16:57:48.619Z,15.17
2023-03-06T17:00:11.397Z,14.83
2023-03-06T17:02:33.024Z,13.67
2023-03-06T17:04:55.747Z,15.80
2023-03-06T17:07:17.253Z,16.93
2023-03-06T17:09:38.677Z,21.70
2023-03-06T17:12:00.180Z,22.90
2023-03-06T17:14:21.620Z,18.57
2023-03-06T17:16:43.116Z,18.60
2023-03-06T17:19:04.604Z,27.13
2023-03-06T17:21:26.986Z,24.83
2023-03-06T17:23:48.516Z,26.80
2023-03-06T17:26:15.910Z,17.73
2023-03-06T17:28:38.699Z,16.83
2023-03-06T17:31:01.755Z,14.50
2023-03-06T17:33:23.422Z,14.33
2023-03-06T17:35:44.999Z,15.63
2023-03-06T17:38:06.452Z,15.37
2023-03-06T17:40:27.983Z,15.27
2023-03-06T17:42:50.799Z,15.07
2023-03-06T17:45:12.319Z,14.83
2023-03-06T17:47:33.809Z,14.83
2023-03-06T17:49:55.253Z,13.27
2023-03-06T17:52:16.712Z,14.27
2023-03-06T17:54:38.118Z,14.33
2023-03-06T17:57:03.296Z,14.37
2023-03-06T17:59:25.980Z,13.67
2023-03-06T18:01:47.550Z,13.73
2023-03-06T18:04:10.291Z,14.07
2023-03-06T18:06:33.549Z,14.17
2023-03-06T18:08:55.003Z,12.93
2023-03-06T18:11:16.770Z,14.10
2023-03-06T18:13:40.882Z,13.23
2023-03-06T18:16:03.799Z,14.57
2023-03-06T18:18:26.078Z,13.07
2023-03-06T18:20:48.010Z,12.97
2023-03-06T18:23:09.539Z,13.53
2023-03-06T18:25:32.275Z,12.77
2023-03-06T18:27:53.759Z,13.23
2023-03-06T18:30:15.363Z,13.37
2023-03-06T18:32:36.863Z,12.90
2023-03-06T18:34:58.394Z,13.40
2023-03-06T18:37:19.846Z,13.23
2023-03-06T18:39:41.354Z,14.37
2023-03-06T18:42:03.185Z,15.30
2023-03-06T18:44:24.665Z,18.03
2023-03-06T18:46:46.195Z,16.53
2023-03-06T18:49:07.750Z,19.57
2023-03-06T18:51:29.547Z,17.87
2023-03-06T18:53:51.056Z,16.93
2023-03-06T18:56:17.864Z,16.23
2023-03-06T18:58:39.326Z,14.37
2023-03-06T19:01:06.505Z,16.60
2023-03-06T19:03:27.995Z,16.40
2023-03-06T19:05:49.818Z,13.93
2023-03-06T19:08:12.222Z,19.17
2023-03-06T19:10:38.926Z,16.90
2023-03-06T19:13:00.422Z,14.10
2023-03-06T19:15:21.892Z,12.87
2023-03-06T19:17:43.426Z,12.90
2023-03-06T19:20:05.435Z,13.10
2023-03-06T19:22:26.905Z,12.37
2023-03-06T19:24:50.086Z,12.00
2023-03-06T19:27:11.888Z,12.70
2023-03-06T19:29:33.434Z,12.20
2023-03-06T19:31:57.120Z,11.87
2023-03-06T19:34:18.808Z,12.27
2023-03-06T19:36:40.920Z,12.40
2023-03-06T19:39:05.089Z,12.37
2023-03-06T19:41:27.745Z,11.80
2023-03-06T19:43:52.988Z,13.03
2023-03-06T19:46:14.961Z,12.37
2023-03-06T19:48:36.676Z,13.47
2023-03-06T19:51:03.247Z,12.70
2023-03-06T19:53:24.755Z,12.50
2023-03-06T19:55:46.175Z,12.67
2023-03-06T19:58:08.542Z,11.70
2023-03-06T20:00:30.331Z,12.27
2023-03-06T20:02:51.803Z,11.87
2023-03-06T20:05:13.242Z,12.63
2023-03-06T20:07:35.364Z,12.37
2023-03-06T20:10:00.395Z,11.97
2023-03-06T20:12:21.836Z,12.23
2023-03-06T20:14:45.954Z,12.93
2023-03-06T20:17:07.969Z,11.77
2023-03-06T20:19:29.747Z,12.00
2023-03-06T20:21:51.412Z,11.07
2023-03-06T20:24:16.744Z,11.33
2023-03-06T20:26:38.610Z,12.83
2023-03-06T20:29:00.373Z,11.90
2023-03-06T20:31:24.946Z,11.90
2023-03-06T20:33:48.482Z,11.87
2023-03-06T20:36:13.976Z,12.03
2023-03-06T20:38:35.448Z,11.80
2023-03-06T20:40:57.904Z,11.53
2023-03-06T20:43:19.367Z,12.40
2023-03-06T20:45:40.814Z,12.63
2023-03-06T20:48:02.393Z,13.23
2023-03-06T20:50:24.082Z,12.57
2023-03-06T20:52:45.537Z,13.23
2023-03-06T20:55:07.489Z,12.80
2023-03-06T20:57:28.927Z,11.90
2023-03-06T20:59:50.369Z,12.80
2023-03-06T21:02:11.885Z,13.63
2023-03-06T21:04:33.409Z,13.33
2023-03-06T21:06:54.974Z,12.83
2023-03-06T21:09:17.410Z,13.50
2023-03-06T21:11:38.932Z,13.23
2023-03-06T21:14:00.989Z,13.07
2023-03-06T21:16:24.615Z,13.67
2023-03-06T21:18:46.465Z,14.47
2023-03-06T21:21:14.032Z,14.60
2023-03-06T21:23:35.548Z,13.43
2023-03-06T21:25:57.190Z,13.87
2023-03-06T21:28:19.040Z,14.60
2023-03-06T21:30:40.478Z,14.43
2023-03-06T21:33:01.932Z,14.57
2023-03-06T21:35:23.463Z,14.40
2023-03-06T21:37:45.562Z,14.03
2023-03-06T21:40:07.814Z,14.60
2023-03-06T21:42:29.469Z,13.90
2023-03-06T21:44:50.942Z,14.37
2023-03-06T21:47:12.371Z,13.37
2023-03-06T21:49:33.864Z,15.00
2023-03-06T21:51:55.794Z,13.60
2023-03-06T21:54:17.259Z,14.63
2023-03-06T21:56:38.755Z,14.13
2023-03-06T21:59:00.748Z,12.50
2023-03-06T22:01:27.606Z,13.60
2023-03-06T22:03:49.221Z,14.37
2023-03-06T22:06:16.330Z,13.30
2023-03-06T22:08:38.288Z,14.07
2023-03-06T22:10:59.762Z,14.80
2023-03-06T22:13:22.220Z,12.40
2023-03-06T22:15:51.443Z,12.73
2023-03-06T22:18:15.781Z,14.07
2023-03-06T22:20:39.475Z,15.47
2023-03-06T22:23:00.907Z,13.70
2023-03-06T22:25:22.343Z,13.83
2023-03-06T22:27:43.761Z,14.07
2023-03-06T22:30:05.675Z,12.23
2023-03-06T22:32:27.174Z,14.10
2023-03-06T22:34:50.173Z,10.97
2023-03-06T22:37:11.630Z,14.27
2023-03-06T22:39:33.092Z,14.27
2023-03-06T22:41:58.125Z,13.47
2023-03-06T22:44:19.622Z,14.10
2023-03-06T22:46:41.682Z,12.50
2023-03-06T22:49:03.287Z,12.87
2023-03-06T22:51:27.023Z,13.87
2023-03-06T22:53:48.984Z,14.03
2023-03-06T22:56:12.658Z,14.13
2023-03-06T22:58:37.164Z,13.07
2023-03-06T23:01:13.028Z,13.67
2023-03-06T23:03:39.868Z,11.87
2023-03-06T23:06:01.364Z,12.97
2023-03-06T23:08:22.917Z,10.17
2023-03-06T23:10:44.368Z,14.27
2023-03-06T23:13:05.893Z,14.03
2023-03-06T23:15:27.431Z,13.83
2023-03-06T23:17:51.108Z,13.70
2023-03-06T23:20:13.724Z,13.67
2023-03-06T23:22:35.457Z,13.43
2023-03-06T23:24:56.916Z,14.90
2023-03-06T23:27:19.330Z,13.97
2023-03-06T23:29:40.849Z,14.30
2023-03-06T23:32:02.412Z,14.77
2023-03-06T23:34:23.993Z,15.97
2023-03-06T23:36:45.510Z,14.17
2023-03-06T23:39:06.967Z,13.33
2023-03-06T23:41:28.597Z,15.23
2023-03-06T23:43:50.598Z,14.70
2023-03-06T23:46:13.003Z,15.60
2023-03-06T23:48:35.958Z,14.87
2023-03-06T23:50:57.475Z,12.33
2023-03-06T23:53:18.918Z,15.10
2023-03-06T23:55:42.123Z,15.83
2023-03-06T23:58:03.558Z,14.73
